Aviation Digital Data Service (ADDS)

Output produced by METARs form (1933 UTC 18 June 2019)
found at http://www.aviationweather.gov/metar/data/
 
METAR text: FCBB 181900Z 21004KT 7000 NSC 28/20 Q1015 NOSIG
Conditions at: FCBB (BRAZZAVILLE/MAYA, CG) observed 1900 UTC 18 June 2019
Temperature: 28.0°C (82°F)
Dewpoint: 20.0°C (68°F) [RH = 62%]
Pressure (altimeter): 29.97 inches Hg (1015.0 mb)
Winds: from the SSW (210 degrees) at 5 MPH (4 knots; 2.1 m/s)
Visibility: 4 miles ( 7 km)
Ceiling: at least 12,000 feet AGL
Clouds: sky clear below 12,000 feet AGL
Weather: no significant weather observed at this time

METAR text: FCBB 181800Z 24004KT 7000 NSC 28/21 Q1014 NOSIG
Conditions at: FCBB (BRAZZAVILLE/MAYA, CG) observed 1800 UTC 18 June 2019
Temperature: 28.0°C (82°F)
Dewpoint: 21.0°C (70°F) [RH = 66%]
Pressure (altimeter): 29.94 inches Hg (1014.0 mb)
Winds: from the WSW (240 degrees) at 5 MPH (4 knots; 2.1 m/s)
Visibility: 4 miles ( 7 km)
Ceiling: at least 12,000 feet AGL
Clouds: sky clear below 12,000 feet AGL
Weather: no significant weather observed at this time

METAR text: FCBB 181700Z 26002KT 7000 NSC 29/20 Q1013 NOSIG
Conditions at: FCBB (BRAZZAVILLE/MAYA, CG) observed 1700 UTC 18 June 2019
Temperature: 29.0°C (84°F)
Dewpoint: 20.0°C (68°F) [RH = 58%]
Pressure (altimeter): 29.91 inches Hg (1013.0 mb)
Winds: from the W (260 degrees) at 2 MPH (2 knots; 1.0 m/s)
Visibility: 4 miles ( 7 km)
Ceiling: at least 12,000 feet AGL
Clouds: sky clear below 12,000 feet AGL
Weather: no significant weather observed at this time

METAR text: FCBB 181600Z 22005KT 9000 NSC 31/19 Q1013 NOSIG
Conditions at: FCBB (BRAZZAVILLE/MAYA, CG) observed 1600 UTC 18 June 2019
Temperature: 31.0°C (88°F)
Dewpoint: 19.0°C (66°F) [RH = 49%]
Pressure (altimeter): 29.91 inches Hg (1013.0 mb)
Winds: from the SW (220 degrees) at 6 MPH (5 knots; 2.6 m/s)
Visibility: 6 miles ( 9 km)
Ceiling: at least 12,000 feet AGL
Clouds: sky clear below 12,000 feet AGL
Weather: no significant weather observed at this time

METAR text: FCBB 181500Z 22005KT 180V260 9000 NSC 31/20 Q1013 NOSIG
Conditions at: FCBB (BRAZZAVILLE/MAYA, CG) observed 1500 UTC 18 June 2019
Temperature: 31.0°C (88°F)
Dewpoint: 20.0°C (68°F) [RH = 52%]
Pressure (altimeter): 29.91 inches Hg (1013.0 mb)
Winds: from the SW (220 degrees) at 6 MPH (5 knots; 2.6 m/s)
Visibility: 6 miles ( 9 km)
Ceiling: at least 12,000 feet AGL
Clouds: sky clear below 12,000 feet AGL
Weather: no significant weather observed at this time

METAR text: FCBB 181400Z 20004KT 080V250 9000 NSC 32/19 Q1013 NOSIG
Conditions at: FCBB (BRAZZAVILLE/MAYA, CG) observed 1400 UTC 18 June 2019
Temperature: 32.0°C (90°F)
Dewpoint: 19.0°C (66°F) [RH = 46%]
Pressure (altimeter): 29.91 inches Hg (1013.0 mb)
Winds: from the SSW (200 degrees) at 5 MPH (4 knots; 2.1 m/s)
Visibility: 6 miles ( 9 km)
Ceiling: at least 12,000 feet AGL
Clouds: sky clear below 12,000 feet AGL
Weather: no significant weather observed at this time

METAR text: FCBB 181300Z 20004KT 150V270 9000 NSC 31/19 Q1014 NOSIG
Conditions at: FCBB (BRAZZAVILLE/MAYA, CG) observed 1300 UTC 18 June 2019
Temperature: 31.0°C (88°F)
Dewpoint: 19.0°C (66°F) [RH = 49%]
Pressure (altimeter): 29.94 inches Hg (1014.0 mb)
Winds: from the SSW (200 degrees) at 5 MPH (4 knots; 2.1 m/s)
Visibility: 6 miles ( 9 km)
Ceiling: at least 12,000 feet AGL
Clouds: sky clear below 12,000 feet AGL
Weather: no significant weather observed at this time

METAR text: FCBB 181200Z VRB03KT 9000 NSC 30/19 Q1015 NOSIG
Conditions at: FCBB (BRAZZAVILLE/MAYA, CG) observed 1200 UTC 18 June 2019
Temperature: 30.0°C (86°F)
Dewpoint: 19.0°C (66°F) [RH = 52%]
Pressure (altimeter): 29.97 inches Hg (1015.0 mb)
Winds: variable direction winds at 3 MPH (3 knots; 1.5 m/s)
Visibility: 6 miles ( 9 km)
Ceiling: at least 12,000 feet AGL
Clouds: sky clear below 12,000 feet AGL
Weather: no significant weather observed at this time

METAR text: FCBB 181100Z 21006KT 170V270 9000 NSC 29/19 Q1016 NOSIG
Conditions at: FCBB (BRAZZAVILLE/MAYA, CG) observed 1100 UTC 18 June 2019
Temperature: 29.0°C (84°F)
Dewpoint: 19.0°C (66°F) [RH = 55%]
Pressure (altimeter): 30.00 inches Hg (1016.0 mb)
Winds: from the SSW (210 degrees) at 7 MPH (6 knots; 3.1 m/s)
Visibility: 6 miles ( 9 km)
Ceiling: at least 12,000 feet AGL
Clouds: sky clear below 12,000 feet AGL
Weather: no significant weather observed at this time

METAR text: FCBB 181000Z 20004KT 150V260 9000 NSC 27/20 Q1017 NOSIG
Conditions at: FCBB (BRAZZAVILLE/MAYA, CG) observed 1000 UTC 18 June 2019
Temperature: 27.0°C (81°F)
Dewpoint: 20.0°C (68°F) [RH = 66%]
Pressure (altimeter): 30.03 inches Hg (1017.0 mb)
Winds: from the SSW (200 degrees) at 5 MPH (4 knots; 2.1 m/s)
Visibility: 6 miles ( 9 km)
Ceiling: at least 12,000 feet AGL
Clouds: sky clear below 12,000 feet AGL
Weather: no significant weather observed at this time

METAR text: FCBB 180900Z 22005KT 170V290 8000 NSC 26/20 Q1018 NOSIG
Conditions at: FCBB (BRAZZAVILLE/MAYA, CG) observed 0900 UTC 18 June 2019
Temperature: 26.0°C (79°F)
Dewpoint: 20.0°C (68°F) [RH = 70%]
Pressure (altimeter): 30.06 inches Hg (1018.0 mb)
Winds: from the SW (220 degrees) at 6 MPH (5 knots; 2.6 m/s)
Visibility: 5 miles ( 8 km)
Ceiling: at least 12,000 feet AGL
Clouds: sky clear below 12,000 feet AGL
Weather: no significant weather observed at this time

METAR text: FCBB 180800Z 23004KT 200V270 6000 NSC 24/20 Q1018 NOSIG
Conditions at: FCBB (BRAZZAVILLE/MAYA, CG) observed 0800 UTC 18 June 2019
Temperature: 24.0°C (75°F)
Dewpoint: 20.0°C (68°F) [RH = 78%]
Pressure (altimeter): 30.06 inches Hg (1018.0 mb)
Winds: from the SW (230 degrees) at 5 MPH (4 knots; 2.1 m/s)
Visibility: 4 miles ( 6 km)
Ceiling: at least 12,000 feet AGL
Clouds: sky clear below 12,000 feet AGL
Weather: no significant weather observed at this time

METAR text: FCBB 180700Z 24006KT 6000 FEW016 22/20 Q1018 NOSIG
Conditions at: FCBB (BRAZZAVILLE/MAYA, CG) observed 0700 UTC 18 June 2019
Temperature: 22.0°C (72°F)
Dewpoint: 20.0°C (68°F) [RH = 88%]
Pressure (altimeter): 30.06 inches Hg (1018.0 mb)
Winds: from the WSW (240 degrees) at 7 MPH (6 knots; 3.1 m/s)
Visibility: 4 miles ( 6 km)
Ceiling: at least 12,000 feet AGL
Clouds: few clouds at 1600 feet AGL
Weather: no significant weather observed at this time

METAR text: FCBB 180600Z 23004KT 6000 NSC 20/20 Q1017 BECMG 4000 BR
Conditions at: FCBB (BRAZZAVILLE/MAYA, CG) observed 0600 UTC 18 June 2019
Temperature: 20.0°C (68°F)
Dewpoint: 20.0°C (68°F) [RH = 100%]
Pressure (altimeter): 30.03 inches Hg (1017.0 mb)
Winds: from the SW (230 degrees) at 5 MPH (4 knots; 2.1 m/s)
Visibility: 4 miles ( 6 km)
Ceiling: at least 12,000 feet AGL
Clouds: sky clear below 12,000 feet AGL
Weather: no significant weather observed at this time

METAR text: FCBB 180500Z VRB02KT 6000 NSC 20/19 Q1016 BECMG 4000 BR
Conditions at: FCBB (BRAZZAVILLE/MAYA, CG) observed 0500 UTC 18 June 2019
Temperature: 20.0°C (68°F)
Dewpoint: 19.0°C (66°F) [RH = 94%]
Pressure (altimeter): 30.00 inches Hg (1016.0 mb)
Winds: variable direction winds at 2 MPH (2 knots; 1.0 m/s)
Visibility: 4 miles ( 6 km)
Ceiling: at least 12,000 feet AGL
Clouds: sky clear below 12,000 feet AGL
Weather: no significant weather observed at this time

METAR text: FCBB 180400Z VRB03KT 7000 NSC 20/19 Q1016 NOSIG
Conditions at: FCBB (BRAZZAVILLE/MAYA, CG) observed 0400 UTC 18 June 2019
Temperature: 20.0°C (68°F)
Dewpoint: 19.0°C (66°F) [RH = 94%]
Pressure (altimeter): 30.00 inches Hg (1016.0 mb)
Winds: variable direction winds at 3 MPH (3 knots; 1.5 m/s)
Visibility: 4 miles ( 7 km)
Ceiling: at least 12,000 feet AGL
Clouds: sky clear below 12,000 feet AGL
Weather: no significant weather observed at this time

METAR text: FCBB 180300Z 24004KT 7000 NSC 21/20 Q1016 NOSIG
Conditions at: FCBB (BRAZZAVILLE/MAYA, CG) observed 0300 UTC 18 June 2019
Temperature: 21.0°C (70°F)
Dewpoint: 20.0°C (68°F) [RH = 94%]
Pressure (altimeter): 30.00 inches Hg (1016.0 mb)
Winds: from the WSW (240 degrees) at 5 MPH (4 knots; 2.1 m/s)
Visibility: 4 miles ( 7 km)
Ceiling: at least 12,000 feet AGL
Clouds: sky clear below 12,000 feet AGL
Weather: no significant weather observed at this time

METAR text: FCBB 180100Z 25004KT 7000 NSC 22/20 Q1016 NOSIG
Conditions at: FCBB (BRAZZAVILLE/MAYA, CG) observed 0100 UTC 18 June 2019
Temperature: 22.0°C (72°F)
Dewpoint: 20.0°C (68°F) [RH = 88%]
Pressure (altimeter): 30.00 inches Hg (1016.0 mb)
Winds: from the WSW (250 degrees) at 5 MPH (4 knots; 2.1 m/s)
Visibility: 4 miles ( 7 km)
Ceiling: at least 12,000 feet AGL
Clouds: sky clear below 12,000 feet AGL
Weather: no significant weather observed at this time

METAR text: FCBB 180000Z 21004KT 7000 NSC 22/20 Q1016 NOSIG
Conditions at: FCBB (BRAZZAVILLE/MAYA, CG) observed 0000 UTC 18 June 2019
Temperature: 22.0°C (72°F)
Dewpoint: 20.0°C (68°F) [RH = 88%]
Pressure (altimeter): 30.00 inches Hg (1016.0 mb)
Winds: from the SSW (210 degrees) at 5 MPH (4 knots; 2.1 m/s)
Visibility: 4 miles ( 7 km)
Ceiling: at least 12,000 feet AGL
Clouds: sky clear below 12,000 feet AGL
Weather: no significant weather observed at this time

METAR text: FCBB 172100Z 26004KT 7000 NSC 25/20 Q1016 NOSIG
Conditions at: FCBB (BRAZZAVILLE/MAYA, CG) observed 2100 UTC 17 June 2019
Temperature: 25.0°C (77°F)
Dewpoint: 20.0°C (68°F) [RH = 74%]
Pressure (altimeter): 30.00 inches Hg (1016.0 mb)
Winds: from the W (260 degrees) at 5 MPH (4 knots; 2.1 m/s)
Visibility: 4 miles ( 7 km)
Ceiling: at least 12,000 feet AGL
Clouds: sky clear below 12,000 feet AGL
Weather: no significant weather observed at this time

METAR text: FCBB 171900Z 23003KT 210V270 8000 NSC 26/21 Q1015 NOSIG
Conditions at: FCBB (BRAZZAVILLE/MAYA, CG) observed 1900 UTC 17 June 2019
Temperature: 26.0°C (79°F)
Dewpoint: 21.0°C (70°F) [RH = 74%]
Pressure (altimeter): 29.97 inches Hg (1015.0 mb)
Winds: from the SW (230 degrees) at 3 MPH (3 knots; 1.5 m/s)
Visibility: 5 miles ( 8 km)
Ceiling: at least 12,000 feet AGL
Clouds: sky clear below 12,000 feet AGL
Weather: no significant weather observed at this time

METAR text: FCBB 171800Z 00000KT 7000 NSC 27/21 Q1014 NOSIG
Conditions at: FCBB (BRAZZAVILLE/MAYA, CG) observed 1800 UTC 17 June 2019
Temperature: 27.0°C (81°F)
Dewpoint: 21.0°C (70°F) [RH = 70%]
Pressure (altimeter): 29.94 inches Hg (1014.0 mb)
Winds: calm
Visibility: 4 miles ( 7 km)
Ceiling: at least 12,000 feet AGL
Clouds: sky clear below 12,000 feet AGL
Weather: no significant weather observed at this time

METAR text: FCBB 171700Z VRB02KT 8000 NSC 28/21 Q1013 NOSIG
Conditions at: FCBB (BRAZZAVILLE/MAYA, CG) observed 1700 UTC 17 June 2019
Temperature: 28.0°C (82°F)
Dewpoint: 21.0°C (70°F) [RH = 66%]
Pressure (altimeter): 29.91 inches Hg (1013.0 mb)
Winds: variable direction winds at 2 MPH (2 knots; 1.0 m/s)
Visibility: 5 miles ( 8 km)
Ceiling: at least 12,000 feet AGL
Clouds: sky clear below 12,000 feet AGL
Weather: no significant weather observed at this time

METAR text: FCBB 171600Z 30004KT 260V340 8000 NSC 30/21 Q1013 NOSIG
Conditions at: FCBB (BRAZZAVILLE/MAYA, CG) observed 1600 UTC 17 June 2019
Temperature: 30.0°C (86°F)
Dewpoint: 21.0°C (70°F) [RH = 59%]
Pressure (altimeter): 29.91 inches Hg (1013.0 mb)
Winds: from the WNW (300 degrees) at 5 MPH (4 knots; 2.1 m/s)
Visibility: 5 miles ( 8 km)
Ceiling: at least 12,000 feet AGL
Clouds: sky clear below 12,000 feet AGL
Weather: no significant weather observed at this time

METAR text: FCBB 171500Z 25006KT 220V320 8000 NSC 30/20 Q1013 NOSIG
Conditions at: FCBB (BRAZZAVILLE/MAYA, CG) observed 1500 UTC 17 June 2019
Temperature: 30.0°C (86°F)
Dewpoint: 20.0°C (68°F) [RH = 55%]
Pressure (altimeter): 29.91 inches Hg (1013.0 mb)
Winds: from the WSW (250 degrees) at 7 MPH (6 knots; 3.1 m/s)
Visibility: 5 miles ( 8 km)
Ceiling: at least 12,000 feet AGL
Clouds: sky clear below 12,000 feet AGL
Weather: no significant weather observed at this time

METAR text: FCBB 171400Z 23006KT 180V280 8000 NSC 30/20 Q1013 NOSIG
Conditions at: FCBB (BRAZZAVILLE/MAYA, CG) observed 1400 UTC 17 June 2019
Temperature: 30.0°C (86°F)
Dewpoint: 20.0°C (68°F) [RH = 55%]
Pressure (altimeter): 29.91 inches Hg (1013.0 mb)
Winds: from the SW (230 degrees) at 7 MPH (6 knots; 3.1 m/s)
Visibility: 5 miles ( 8 km)
Ceiling: at least 12,000 feet AGL
Clouds: sky clear below 12,000 feet AGL
Weather: no significant weather observed at this time

METAR text: FCBB 171300Z 22006KT 170V260 7000 NSC 28/20 Q1014 NOSIG
Conditions at: FCBB (BRAZZAVILLE/MAYA, CG) observed 1300 UTC 17 June 2019
Temperature: 28.0°C (82°F)
Dewpoint: 20.0°C (68°F) [RH = 62%]
Pressure (altimeter): 29.94 inches Hg (1014.0 mb)
Winds: from the SW (220 degrees) at 7 MPH (6 knots; 3.1 m/s)
Visibility: 4 miles ( 7 km)
Ceiling: at least 12,000 feet AGL
Clouds: sky clear below 12,000 feet AGL
Weather: no significant weather observed at this time

METAR text: FCBB 171200Z VRB06KT 7000 NSC 27/20 Q1016 NOSIG
Conditions at: FCBB (BRAZZAVILLE/MAYA, CG) observed 1200 UTC 17 June 2019
Temperature: 27.0°C (81°F)
Dewpoint: 20.0°C (68°F) [RH = 66%]
Pressure (altimeter): 30.00 inches Hg (1016.0 mb)
Winds: variable direction winds at 7 MPH (6 knots; 3.1 m/s)
Visibility: 4 miles ( 7 km)
Ceiling: at least 12,000 feet AGL
Clouds: sky clear below 12,000 feet AGL
Weather: no significant weather observed at this time

METAR text: FCBB 171100Z 30003KT 220V010 6000 BKN020 26/20 Q1017 NOSIG
Conditions at: FCBB (BRAZZAVILLE/MAYA, CG) observed 1100 UTC 17 June 2019
Temperature: 26.0°C (79°F)
Dewpoint: 20.0°C (68°F) [RH = 70%]
Pressure (altimeter): 30.03 inches Hg (1017.0 mb)
Winds: from the WNW (300 degrees) at 3 MPH (3 knots; 1.5 m/s)
Visibility: 4 miles ( 6 km)
Ceiling: 2000 feet AGL
Clouds: broken clouds at 2000 feet AGL
Weather: no significant weather observed at this time

METAR text: FCBB 171000Z 25004KT 200V290 6000 BKN020 25/20 Q1018 NOSIG
Conditions at: FCBB (BRAZZAVILLE/MAYA, CG) observed 1000 UTC 17 June 2019
Temperature: 25.0°C (77°F)
Dewpoint: 20.0°C (68°F) [RH = 74%]
Pressure (altimeter): 30.06 inches Hg (1018.0 mb)
Winds: from the WSW (250 degrees) at 5 MPH (4 knots; 2.1 m/s)
Visibility: 4 miles ( 6 km)
Ceiling: 2000 feet AGL
Clouds: broken clouds at 2000 feet AGL
Weather: no significant weather observed at this time

METAR text: FCBB 170900Z 22006KT 190V250 6000 BKN020 24/20 Q1018 NOSIG
Conditions at: FCBB (BRAZZAVILLE/MAYA, CG) observed 0900 UTC 17 June 2019
Temperature: 24.0°C (75°F)
Dewpoint: 20.0°C (68°F) [RH = 78%]
Pressure (altimeter): 30.06 inches Hg (1018.0 mb)
Winds: from the SW (220 degrees) at 7 MPH (6 knots; 3.1 m/s)
Visibility: 4 miles ( 6 km)
Ceiling: 2000 feet AGL
Clouds: broken clouds at 2000 feet AGL
Weather: no significant weather observed at this time

METAR text: FCBB 170800Z 20005KT 6000 BKN020 23/20 Q1019 NOSIG
Conditions at: FCBB (BRAZZAVILLE/MAYA, CG) observed 0800 UTC 17 June 2019
Temperature: 23.0°C (73°F)
Dewpoint: 20.0°C (68°F) [RH = 83%]
Pressure (altimeter): 30.09 inches Hg (1019.0 mb)
Winds: from the SSW (200 degrees) at 6 MPH (5 knots; 2.6 m/s)
Visibility: 4 miles ( 6 km)
Ceiling: 2000 feet AGL
Clouds: broken clouds at 2000 feet AGL
Weather: no significant weather observed at this time

Forecast for: FCBB (BRAZZAVILLE/MAYA, CG)
Text: TAF FCBB 181700Z 1818/1924 26003KT 7000 FEW016
Forecast period: 1800 UTC 18 June 2019 to 0000 UTC 20 June 2019
Forecast type: FROM: standard forecast or significant change
Winds: from the W (260 degrees) at 3 MPH (3 knots; 1.5 m/s)
Visibility: 4 miles (7 km)
Ceiling: at least 12,000 feet AGL
Clouds: few clouds at 1600 feet AGL
Weather: no significant weather forecast for this period
Text: PROB30 1904/1908 3000 BR
Forecast period: 0400 to 0800 UTC 19 June 2019
Forecast type: PROBABLE: 30 percent likelihood of the following during this time
Visibility: 1.86 miles (2.99 km)
Ceiling: unknown
Clouds: missing
Weather: BR  (mist)